Terminal Aerodrome Forecast
Issued by NWS Mt. Holly, NJ

Home | Current Version | Previous Version | Text Only | Print | Product List | Glossary On
Versions: 1 2 3 4 5 6 7 8 9 10 11 12 13 14 15 16 17 18 19 20 21 22 23 24 25 26 27 28 29 30 31 32 33 34 35 36 37 38 39 40 41 42 43 44 45 46 47 48 49 50
000
FTUS41 KPHI 181722
TAFPHL
TAF
KPHL 181722Z 1818/1924 VRB04KT P6SM VCTS SCT025CB BKN100
      TEMPO 1818/1822 3SM SHRA BKN020
     FM182200 33005KT P6SM VCSH SCT020 BKN040
     FM182300 01005KT P6SM SCT040 BKN200
     FM190200 VRB02KT P6SM SCT020 BKN200
     FM190900 VRB03KT 4SM BR BKN012
     FM191300 24005KT 6SM HZ FEW050=

USA.gov is the U.S. government's official web portal to all federal, state and local government web resources and services.